createdAt,value
2023-04-11T00:00:25.230Z,95719.91
2023-04-11T00:01:33.098Z,95721.84
2023-04-11T00:02:40.459Z,95711.91
2023-04-11T00:03:46.891Z,95707.84
2023-04-11T00:04:55.464Z,95706.91
2023-04-11T00:06:06.217Z,95710.44
2023-04-11T00:07:10.697Z,95709.41
2023-04-11T00:08:17.638Z,95697.97
2023-04-11T00:09:21.533Z,95697.97
2023-04-11T00:10:28.007Z,95701.41
2023-04-11T00:11:32.759Z,95703.91
2023-04-11T00:12:39.614Z,95688.41
2023-04-11T00:13:43.722Z,95690.72
2023-04-11T00:14:50.257Z,95683.13
2023-04-11T00:15:57.051Z,95674.78
2023-04-11T00:17:10.506Z,95670.59
2023-04-11T00:18:14.585Z,95679.91
2023-04-11T00:19:23.754Z,95665.94
2023-04-11T00:20:27.539Z,95667.19
2023-04-11T00:21:40.520Z,95658.44
2023-04-11T00:22:46.425Z,95664.72
2023-04-11T00:23:55.534Z,95648.72
2023-04-11T00:24:59.324Z,95649.75
2023-04-11T00:26:07.050Z,95649.13
2023-04-11T00:27:11.202Z,95642.34
2023-04-11T00:28:18.104Z,95631.22
2023-04-11T00:29:21.989Z,95625.00
2023-04-11T00:30:28.569Z,95625.94
2023-04-11T00:31:34.022Z,95621.34
2023-04-11T00:32:41.184Z,95619.59
2023-04-11T00:33:46.495Z,95617.50
2023-04-11T00:34:53.559Z,95625.19
2023-04-11T00:35:56.929Z,95609.59
2023-04-11T00:37:07.183Z,95618.34
2023-04-11T00:38:10.741Z,95609.72
2023-04-11T00:39:19.167Z,95610.00
2023-04-11T00:40:23.041Z,95598.97
2023-04-11T00:41:30.144Z,95602.69
2023-04-11T00:42:35.350Z,95610.00
2023-04-11T00:43:41.431Z,95603.31
2023-04-11T00:44:44.340Z,95603.44
2023-04-11T00:45:51.966Z,95597.94
2023-04-11T00:46:56.185Z,95584.41
2023-04-11T00:48:03.578Z,95595.94
2023-04-11T00:49:07.573Z,95604.25
2023-04-11T00:50:17.588Z,95607.28
2023-04-11T00:51:21.463Z,95615.28
2023-04-11T00:52:31.255Z,95620.81
2023-04-11T00:53:35.848Z,95618.91
2023-04-11T00:54:44.830Z,95623.94
2023-04-11T00:55:48.619Z,95629.13
2023-04-11T00:56:56.489Z,95634.97
2023-04-11T00:58:00.294Z,95628.94
2023-04-11T00:59:09.754Z,95621.97
2023-04-11T01:00:16.854Z,95618.19
2023-04-11T01:01:32.798Z,95610.50
2023-04-11T01:02:38.654Z,95615.81
2023-04-11T01:03:46.132Z,95610.25
2023-04-11T01:04:50.284Z,95608.69
2023-04-11T01:05:58.863Z,95609.53
2023-04-11T01:07:07.478Z,95599.88
2023-04-11T01:08:20.220Z,95607.75
2023-04-11T01:09:28.494Z,95601.66
2023-04-11T01:10:36.110Z,95600.63
2023-04-11T01:11:40.459Z,95603.16
2023-04-11T01:12:48.125Z,95603.16
2023-04-11T01:13:52.533Z,95595.34
2023-04-11T01:15:02.010Z,95595.44
2023-04-11T01:16:06.756Z,95590.03
2023-04-11T01:17:13.454Z,95589.75
2023-04-11T01:18:19.858Z,95596.19
2023-04-11T01:19:27.895Z,95605.66
2023-04-11T01:20:33.927Z,95607.13
2023-04-11T01:21:48.022Z,95609.19
2023-04-11T01:22:52.721Z,95612.72
2023-04-11T01:24:05.262Z,95621.03
2023-04-11T01:25:15.559Z,95616.56
2023-04-11T01:26:22.257Z,95613.34
2023-04-11T01:27:28.308Z,95610.41
2023-04-11T01:28:37.009Z,95607.47
2023-04-11T01:29:40.887Z,95599.34
2023-04-11T01:30:48.202Z,95605.13
2023-04-11T01:31:52.537Z,95611.91
2023-04-11T01:32:58.551Z,95609.44
2023-04-11T01:34:03.522Z,95598.78
2023-04-11T01:35:12.529Z,95604.06
2023-04-11T01:36:18.159Z,95596.47
2023-04-11T01:37:24.574Z,95608.91
2023-04-11T01:38:31.154Z,95606.66
2023-04-11T01:39:38.408Z,95611.38
2023-04-11T01:40:46.269Z,95616.41
2023-04-11T01:41:51.320Z,95624.47
2023-04-11T01:42:59.275Z,95627.06
2023-04-11T01:44:03.118Z,95618.06
2023-04-11T01:45:11.548Z,95615.31
2023-04-11T01:46:16.698Z,95619.19
2023-04-11T01:47:23.744Z,95613.94
2023-04-11T01:48:27.926Z,95613.47
2023-04-11T01:49:37.927Z,95608.84
2023-04-11T01:50:41.542Z,95601.19
2023-04-11T01:51:51.137Z,95602.00
2023-04-11T01:52:56.789Z,95596.53
2023-04-11T01:54:04.816Z,95584.69
2023-04-11T01:55:11.779Z,95589.31
2023-04-11T01:56:23.729Z,95599.69
2023-04-11T01:57:29.746Z,95599.69
2023-04-11T01:58:37.215Z,95599.88
2023-04-11T01:59:42.638Z,95608.94
2023-04-11T02:00:48.143Z,95618.59
2023-04-11T02:01:51.269Z,95614.69
2023-04-11T02:02:58.000Z,95622.59
2023-04-11T02:04:01.989Z,95624.88
2023-04-11T02:05:10.211Z,95629.03
2023-04-11T02:06:15.457Z,95625.22
2023-04-11T02:07:22.268Z,95623.53
2023-04-11T02:08:27.477Z,95621.59
2023-04-11T02:09:33.204Z,95627.97
2023-04-11T02:10:38.981Z,95625.81
2023-04-11T02:11:45.239Z,95610.63
2023-04-11T02:12:48.718Z,95612.91
2023-04-11T02:13:55.377Z,95617.25
2023-04-11T02:14:58.571Z,95620.59
2023-04-11T02:16:10.405Z,95615.13
2023-04-11T02:17:14.732Z,95626.34
2023-04-11T02:18:22.210Z,95623.25
2023-04-11T02:19:26.472Z,95630.97
2023-04-11T02:20:33.483Z,95620.16
2023-04-11T02:21:37.454Z,95627.84
2023-04-11T02:22:46.523Z,95629.41
2023-04-11T02:23:52.193Z,95617.09
2023-04-11T02:24:59.192Z,95625.00
2023-04-11T02:26:08.408Z,95618.13
2023-04-11T02:27:17.515Z,95625.16
2023-04-11T02:28:21.182Z,95630.53
2023-04-11T02:29:29.733Z,95635.53
2023-04-11T02:30:32.648Z,95646.31
2023-04-11T02:31:40.296Z,95642.72
2023-04-11T02:32:44.213Z,95643.91
2023-04-11T02:33:51.581Z,95647.69
2023-04-11T02:34:54.893Z,95642.94
2023-04-11T02:36:01.384Z,95641.50
2023-04-11T02:37:05.233Z,95634.94
2023-04-11T02:38:12.037Z,95638.63
2023-04-11T02:39:15.678Z,95637.22
2023-04-11T02:40:24.395Z,95639.09
2023-04-11T02:41:31.504Z,95640.13
2023-04-11T02:42:37.749Z,95646.53
2023-04-11T02:43:40.791Z,95638.19
2023-04-11T02:44:47.984Z,95641.69
2023-04-11T02:45:56.384Z,95643.69
2023-04-11T02:47:09.380Z,95650.81
2023-04-11T02:48:12.677Z,95644.19
2023-04-11T02:49:18.840Z,95645.44
2023-04-11T02:50:23.054Z,95657.78
2023-04-11T02:51:29.519Z,95652.59
2023-04-11T02:52:34.213Z,95654.59
2023-04-11T02:53:41.949Z,95651.41
2023-04-11T02:54:45.198Z,95665.28
2023-04-11T02:55:52.895Z,95653.59
2023-04-11T02:56:58.848Z,95662.25
2023-04-11T02:58:09.505Z,95664.41
2023-04-11T02:59:13.442Z,95677.19
2023-04-11T03:00:20.845Z,95673.59
2023-04-11T03:01:25.890Z,95653.78
2023-04-11T03:02:32.687Z,95646.19
2023-04-11T03:03:37.436Z,95657.69
2023-04-11T03:04:43.256Z,95652.16
2023-04-11T03:05:46.772Z,95647.16
2023-04-11T03:06:53.476Z,95646.47
2023-04-11T03:08:01.753Z,95638.78
2023-04-11T03:09:05.293Z,95647.84
2023-04-11T03:10:13.831Z,95649.75
2023-04-11T03:11:16.996Z,95650.66
2023-04-11T03:12:28.638Z,95652.16
2023-04-11T03:13:34.472Z,95659.25
2023-04-11T03:14:41.661Z,95663.91
2023-04-11T03:15:46.793Z,95669.06
2023-04-11T03:16:52.597Z,95660.69
2023-04-11T03:17:55.814Z,95658.13
2023-04-11T03:19:04.447Z,95652.34
2023-04-11T03:20:12.159Z,95655.59
2023-04-11T03:21:23.225Z,95655.91
2023-04-11T03:22:26.782Z,95660.69
2023-04-11T03:23:34.990Z,95661.63
2023-04-11T03:24:40.660Z,95666.69
2023-04-11T03:25:48.856Z,95670.50
2023-04-11T03:26:52.725Z,95689.66
2023-04-11T03:28:04.089Z,95683.50
2023-04-11T03:29:07.092Z,95682.81
2023-04-11T03:30:13.990Z,95666.50
2023-04-11T03:31:18.634Z,95670.69
2023-04-11T03:32:27.218Z,95663.81
2023-04-11T03:33:31.909Z,95661.59
2023-04-11T03:34:40.428Z,95668.47
2023-04-11T03:35:43.968Z,95665.09
2023-04-11T03:36:52.670Z,95671.19
2023-04-11T03:37:56.672Z,95679.63
2023-04-11T03:39:03.401Z,95679.78
2023-04-11T03:40:09.561Z,95678.63
2023-04-11T03:41:16.234Z,95676.25
2023-04-11T03:42:25.748Z,95671.94
2023-04-11T03:43:35.968Z,95678.09
2023-04-11T03:44:39.320Z,95677.41
2023-04-11T03:45:45.416Z,95676.34
2023-04-11T03:46:48.468Z,95671.03
2023-04-11T03:47:56.415Z,95679.53
2023-04-11T03:49:00.884Z,95680.59
2023-04-11T03:50:07.741Z,95681.53
2023-04-11T03:51:11.392Z,95683.97
2023-04-11T03:52:18.968Z,95684.16
2023-04-11T03:53:25.088Z,95685.91
2023-04-11T03:54:31.366Z,95689.28
2023-04-11T03:55:34.822Z,95688.28
2023-04-11T03:56:41.890Z,95685.63
2023-04-11T03:57:54.638Z,95699.59
2023-04-11T03:59:06.522Z,95702.34
2023-04-11T04:00:12.149Z,95682.88
2023-04-11T04:01:18.511Z,95686.38
2023-04-11T04:02:22.395Z,95682.09
2023-04-11T04:03:28.848Z,95678.78
2023-04-11T04:04:35.128Z,95676.47
2023-04-11T04:05:43.485Z,95680.44
2023-04-11T04:06:48.114Z,95679.81
2023-04-11T04:07:55.916Z,95673.81
2023-04-11T04:09:00.669Z,95661.91
2023-04-11T04:10:07.061Z,95664.13
2023-04-11T04:11:13.700Z,95663.88
2023-04-11T04:12:22.657Z,95660.56
2023-04-11T04:13:28.116Z,95660.69
2023-04-11T04:14:38.057Z,95656.28
2023-04-11T04:15:41.366Z,95658.03
2023-04-11T04:16:47.806Z,95660.97
2023-04-11T04:17:52.229Z,95653.31
2023-04-11T04:18:58.587Z,95648.06
2023-04-11T04:20:05.289Z,95654.28
2023-04-11T04:21:14.990Z,95661.28
2023-04-11T04:22:18.584Z,95653.31
2023-04-11T04:23:24.674Z,95648.06
2023-04-11T04:24:30.281Z,95636.22
2023-04-11T04:25:36.097Z,95635.59
2023-04-11T04:26:40.051Z,95639.25
2023-04-11T04:27:48.314Z,95645.94
2023-04-11T04:28:51.998Z,95651.19
2023-04-11T04:30:03.679Z,95653.81
2023-04-11T04:31:12.131Z,95656.34
2023-04-11T04:32:21.280Z,95664.47
2023-04-11T04:33:26.423Z,95659.47
2023-04-11T04:34:38.759Z,95667.06
2023-04-11T04:35:42.162Z,95680.75
2023-04-11T04:36:51.293Z,95688.41
2023-04-11T04:37:55.042Z,95678.91
2023-04-11T04:39:05.556Z,95676.63
2023-04-11T04:40:09.729Z,95679.13
2023-04-11T04:41:18.237Z,95677.31
2023-04-11T04:42:23.825Z,95688.34
2023-04-11T04:43:32.805Z,95678.91
2023-04-11T04:44:36.533Z,95694.28
2023-04-11T04:45:46.858Z,95701.88
2023-04-11T04:46:55.515Z,95696.56
2023-04-11T04:48:04.969Z,95696.56
2023-04-11T04:49:11.432Z,95702.03
2023-04-11T04:50:18.154Z,95703.84
2023-04-11T04:51:24.635Z,95706.31
2023-04-11T04:52:29.714Z,95701.88
2023-04-11T04:53:39.398Z,95709.78
2023-04-11T04:54:44.601Z,95714.47
2023-04-11T04:55:53.045Z,95730.34
2023-04-11T04:56:56.413Z,95719.34
2023-04-11T04:58:02.716Z,95719.00
2023-04-11T04:59:06.566Z,95721.56
2023-04-11T05:00:14.318Z,95728.56
2023-04-11T05:01:21.461Z,95716.41
2023-04-11T05:02:28.793Z,95719.50
2023-04-11T05:03:36.380Z,95713.50
2023-04-11T05:04:43.384Z,95716.97
2023-04-11T05:05:46.445Z,95715.44
2023-04-11T05:06:53.477Z,95719.78
2023-04-11T05:07:56.597Z,95728.06
2023-04-11T05:09:06.686Z,95726.59
2023-04-11T05:10:13.900Z,95737.03
2023-04-11T05:11:17.107Z,95739.75
2023-04-11T05:12:27.706Z,95737.28
2023-04-11T05:13:35.415Z,95727.94
2023-04-11T05:14:41.842Z,95732.41
2023-04-11T05:15:49.148Z,95736.59
2023-04-11T05:16:58.590Z,95740.44
2023-04-11T05:18:04.805Z,95736.78
2023-04-11T05:19:10.754Z,95749.34
2023-04-11T05:20:14.434Z,95749.22
2023-04-11T05:21:20.643Z,95770.13
2023-04-11T05:22:29.624Z,95763.28
2023-04-11T05:23:33.027Z,95764.22
2023-04-11T05:24:39.683Z,95764.41
2023-04-11T05:25:46.160Z,95775.56
2023-04-11T05:26:52.895Z,95778.13
2023-04-11T05:27:58.688Z,95786.00
2023-04-11T05:29:05.645Z,95780.16
2023-04-11T05:30:10.114Z,95777.59
2023-04-11T05:31:17.783Z,95784.34
2023-04-11T05:32:25.347Z,95776.88
2023-04-11T05:33:32.018Z,95801.81
2023-04-11T05:34:38.503Z,95778.47
2023-04-11T05:35:45.954Z,95792.97
2023-04-11T05:36:49.813Z,95788.22
2023-04-11T05:38:01.449Z,95787.38
2023-04-11T05:39:08.133Z,95789.47
2023-04-11T05:40:12.447Z,95799.78
2023-04-11T05:41:18.934Z,95803.47
2023-04-11T05:42:22.453Z,95794.78
2023-04-11T05:43:29.447Z,95797.22
2023-04-11T05:44:36.700Z,95797.34
2023-04-11T05:45:40.720Z,95801.75
2023-04-11T05:46:49.820Z,95797.47
2023-04-11T05:47:57.620Z,95811.44
2023-04-11T05:49:04.431Z,95812.06
2023-04-11T05:50:09.860Z,95800.19
2023-04-11T05:51:18.163Z,95795.94
2023-04-11T05:52:22.296Z,95813.91
2023-04-11T05:53:29.840Z,95816.84
2023-04-11T05:54:35.992Z,95822.00
2023-04-11T05:55:43.257Z,95824.06
2023-04-11T05:56:50.262Z,95824.06
2023-04-11T05:57:57.134Z,95812.06
2023-04-11T05:59:00.595Z,95819.66
2023-04-11T06:00:17.079Z,95828.44
2023-04-11T06:01:24.977Z,95825.84
2023-04-11T06:02:28.982Z,95825.06
2023-04-11T06:03:38.472Z,95820.97
2023-04-11T06:04:45.405Z,95821.66
2023-04-11T06:05:54.990Z,95828.56
2023-04-11T06:06:58.356Z,95824.41
2023-04-11T06:08:05.176Z,95817.19
2023-04-11T06:09:10.833Z,95819.66
2023-04-11T06:10:18.634Z,95813.66
2023-04-11T06:11:27.087Z,95817.00
2023-04-11T06:12:32.050Z,95813.69
2023-04-11T06:13:39.448Z,95807.78
2023-04-11T06:14:43.199Z,95819.78
2023-04-11T06:15:50.716Z,95820.56
2023-04-11T06:16:55.504Z,95818.03
2023-04-11T06:18:02.501Z,95815.53
2023-04-11T06:19:12.682Z,95820.47
2023-04-11T06:20:16.554Z,95831.75
2023-04-11T06:21:23.475Z,95837.03
2023-04-11T06:22:27.740Z,95846.63
2023-04-11T06:23:35.318Z,95842.44
2023-04-11T06:24:40.073Z,95838.91
2023-04-11T06:25:46.540Z,95840.88
2023-04-11T06:26:52.302Z,95850.16
2023-04-11T06:27:58.550Z,95849.50
2023-04-11T06:29:04.628Z,95854.34
2023-04-11T06:30:13.201Z,95839.69
2023-04-11T06:31:19.362Z,95854.53
2023-04-11T06:32:30.892Z,95858.84
2023-04-11T06:33:39.248Z,95862.47
2023-04-11T06:34:45.626Z,95858.94
2023-04-11T06:35:52.968Z,95859.88
2023-04-11T06:36:56.759Z,95851.19
2023-04-11T06:38:04.348Z,95860.75
2023-04-11T06:39:07.897Z,95853.09
2023-04-11T06:40:18.288Z,95853.69
2023-04-11T06:41:22.057Z,95857.88
2023-04-11T06:42:31.163Z,95856.63
2023-04-11T06:43:37.339Z,95859.34
2023-04-11T06:44:44.416Z,95856.22
2023-04-11T06:45:52.308Z,95852.50
2023-04-11T06:46:56.386Z,95852.69
2023-04-11T06:48:03.040Z,95845.09
2023-04-11T06:49:07.957Z,95849.75
2023-04-11T06:50:17.928Z,95866.16
2023-04-11T06:51:21.807Z,95863.34
2023-04-11T06:52:28.985Z,95866.66
2023-04-11T06:53:32.548Z,95861.84
2023-04-11T06:54:40.467Z,95863.41
2023-04-11T06:55:44.639Z,95860.97
2023-04-11T06:56:52.913Z,95858.25
2023-04-11T06:58:02.991Z,95856.41
2023-04-11T06:59:06.137Z,95859.88
2023-04-11T07:00:13.740Z,95864.84
2023-04-11T07:01:17.357Z,95868.16
2023-04-11T07:02:25.751Z,95863.03
2023-04-11T07:03:29.183Z,95875.63
2023-04-11T07:04:35.909Z,95874.53
2023-04-11T07:05:42.093Z,95869.28
2023-04-11T07:06:48.689Z,95866.25
2023-04-11T07:07:56.284Z,95870.69
2023-04-11T07:09:01.996Z,95869.50
2023-04-11T07:10:10.994Z,95869.00
2023-04-11T07:11:18.036Z,95864.53
2023-04-11T07:12:26.565Z,95869.25
2023-04-11T07:13:32.841Z,95871.88
2023-04-11T07:14:36.556Z,95875.50
2023-04-11T07:15:42.715Z,95870.47
2023-04-11T07:16:47.063Z,95860.19
2023-04-11T07:17:53.157Z,95876.78
2023-04-11T07:18:57.440Z,95881.44
2023-04-11T07:20:06.771Z,95881.34
2023-04-11T07:21:19.441Z,95886.94
2023-04-11T07:22:29.832Z,95870.88
2023-04-11T07:23:36.726Z,95877.53
2023-04-11T07:24:45.250Z,95884.03
2023-04-11T07:25:50.393Z,95878.25
2023-04-11T07:26:59.045Z,95886.00
2023-04-11T07:28:08.049Z,95901.31
2023-04-11T07:29:13.943Z,95898.28
2023-04-11T07:30:23.728Z,95891.38
2023-04-11T07:31:29.382Z,95899.13
2023-04-11T07:32:36.053Z,95900.19
2023-04-11T07:33:47.747Z,95898.56
2023-04-11T07:34:56.802Z,95896.94
2023-04-11T07:36:02.404Z,95897.34
2023-04-11T07:37:11.878Z,95898.22
2023-04-11T07:38:14.358Z,95907.94
2023-04-11T07:39:19.933Z,95907.56
2023-04-11T07:40:23.081Z,95904.94
2023-04-11T07:41:30.541Z,95905.22
2023-04-11T07:42:38.248Z,95901.19
2023-04-11T07:43:42.429Z,95910.75
2023-04-11T07:44:48.838Z,95912.44
2023-04-11T07:45:53.972Z,95911.41
2023-04-11T07:47:00.632Z,95909.31
2023-04-11T07:48:08.081Z,95900.88
2023-04-11T07:49:14.250Z,95906.16
2023-04-11T07:50:17.273Z,95908.81
2023-04-11T07:51:24.442Z,95899.50
2023-04-11T07:52:34.252Z,95897.31
2023-04-11T07:53:37.931Z,95888.78
2023-04-11T07:54:44.828Z,95885.03
2023-04-11T07:55:53.719Z,95891.53
2023-04-11T07:57:02.659Z,95904.41
2023-04-11T07:58:06.911Z,95890.94
2023-04-11T07:59:17.618Z,95891.41
2023-04-11T08:00:23.105Z,95882.84
2023-04-11T08:01:32.454Z,95894.22
2023-04-11T08:02:36.274Z,95894.59
2023-04-11T08:03:43.975Z,95892.97
2023-04-11T08:04:52.241Z,95911.34
2023-04-11T08:05:57.220Z,95906.63
2023-04-11T08:07:06.166Z,95911.00
2023-04-11T08:08:15.680Z,95894.94
2023-04-11T08:09:22.131Z,95904.28
2023-04-11T08:10:26.230Z,95910.56
2023-04-11T08:11:36.689Z,95900.22
2023-04-11T08:12:41.288Z,95895.16
2023-04-11T08:13:48.766Z,95896.06
2023-04-11T08:14:52.587Z,95900.09
2023-04-11T08:16:00.137Z,95908.06
2023-04-11T08:17:17.833Z,95899.41
2023-04-11T08:18:28.668Z,95889.47
2023-04-11T08:19:35.633Z,95898.00
2023-04-11T08:20:41.542Z,95898.16
2023-04-11T08:21:48.118Z,95888.59
2023-04-11T08:22:55.383Z,95904.28
2023-04-11T08:24:06.692Z,95901.78
2023-04-11T08:25:14.114Z,95891.66
2023-04-11T08:26:18.657Z,95888.03
2023-04-11T08:27:25.616Z,95891.50
2023-04-11T08:28:29.011Z,95885.03
2023-04-11T08:29:36.327Z,95889.06
2023-04-11T08:30:40.261Z,95891.28
2023-04-11T08:31:47.878Z,95884.25
2023-04-11T08:32:53.648Z,95897.00
2023-04-11T08:34:01.440Z,95888.69
2023-04-11T08:35:09.984Z,95889.97
2023-04-11T08:36:16.967Z,95884.56
2023-04-11T08:37:20.772Z,95904.78
2023-04-11T08:38:28.544Z,95905.28
2023-04-11T08:39:39.164Z,95897.81
2023-04-11T08:40:42.715Z,95896.94
2023-04-11T08:41:49.295Z,95907.59
2023-04-11T08:43:00.029Z,95893.81
2023-04-11T08:44:08.203Z,95907.28
2023-04-11T08:45:35.953Z,95906.88
2023-04-11T08:46:46.546Z,95905.16
2023-04-11T08:47:50.844Z,95901.34
2023-04-11T08:48:58.345Z,95919.38
2023-04-11T08:50:05.066Z,95906.81
2023-04-11T08:51:13.459Z,95907.25
2023-04-11T08:52:18.225Z,95912.84
2023-04-11T08:53:29.270Z,95911.34
2023-04-11T08:54:40.049Z,95906.31
2023-04-11T08:55:50.988Z,95911.19
2023-04-11T08:56:55.046Z,95912.38
2023-04-11T08:58:03.744Z,95914.91
2023-04-11T08:59:07.186Z,95911.06
2023-04-11T09:00:19.574Z,95918.59
2023-04-11T09:01:27.209Z,95909.25
2023-04-11T09:02:35.830Z,95913.59
2023-04-11T09:03:55.820Z,95917.75
2023-04-11T09:04:59.826Z,95908.66
2023-04-11T09:06:15.446Z,95913.25
2023-04-11T09:07:23.405Z,95906.41
2023-04-11T09:08:42.754Z,95912.06
2023-04-11T09:09:51.337Z,95918.56
2023-04-11T09:11:06.351Z,95915.00
2023-04-11T09:12:09.620Z,95923.16
2023-04-11T09:13:25.777Z,95920.19
2023-04-11T09:14:28.884Z,95917.78
2023-04-11T09:15:35.663Z,95919.47
2023-04-11T09:16:57.997Z,95930.66
2023-04-11T09:18:07.797Z,95906.75
2023-04-11T09:19:27.817Z,95897.00
2023-04-11T09:20:34.448Z,95895.47
2023-04-11T09:21:49.253Z,95902.53
2023-04-11T09:22:55.587Z,95886.09
2023-04-11T09:24:17.776Z,95912.78
2023-04-11T09:25:27.301Z,95918.09
2023-04-11T09:26:30.896Z,95915.59
2023-04-11T09:27:36.196Z,95905.72
2023-04-11T09:28:43.851Z,95918.44
2023-04-11T09:29:51.240Z,95917.09
2023-04-11T09:30:57.756Z,95916.94
2023-04-11T09:32:01.279Z,95912.25
2023-04-11T09:33:25.628Z,95911.81
2023-04-11T09:34:29.742Z,95943.78
2023-04-11T09:35:36.302Z,95905.34
2023-04-11T09:36:42.769Z,95916.81
2023-04-11T09:37:50.670Z,95903.19
2023-04-11T09:38:56.447Z,95895.19
2023-04-11T09:41:13.180Z,95893.69
2023-04-11T09:42:33.593Z,95893.16
2023-04-11T09:43:55.958Z,95884.13
2023-04-11T09:44:59.587Z,95876.84
2023-04-11T09:46:19.436Z,95889.19
2023-04-11T09:47:47.154Z,95883.34
2023-04-11T09:48:58.079Z,95898.50
2023-04-11T09:50:05.254Z,95879.78
2023-04-11T09:51:18.043Z,95880.34
2023-04-11T09:52:36.063Z,95882.91
2023-04-11T09:53:53.515Z,95894.25
2023-04-11T09:55:10.937Z,95893.03
2023-04-11T09:56:31.463Z,95879.75
2023-04-11T09:57:40.694Z,95899.13
2023-04-11T09:58:50.182Z,95889.78
2023-04-11T09:59:55.184Z,95890.69
2023-04-11T10:01:05.050Z,95905.09
2023-04-11T10:02:08.987Z,95894.75
2023-04-11T10:03:19.785Z,95906.66
2023-04-11T10:04:26.361Z,95916.91
2023-04-11T10:05:31.694Z,95914.19
2023-04-11T10:06:47.064Z,95916.78
2023-04-11T10:07:58.974Z,95918.75
2023-04-11T10:09:11.856Z,95940.50
2023-04-11T10:10:22.510Z,95933.66
2023-04-11T10:11:29.211Z,95947.03
2023-04-11T10:12:35.869Z,95943.06
2023-04-11T10:13:43.147Z,95937.47
2023-04-11T10:14:51.024Z,95932.94
2023-04-11T10:16:17.058Z,95940.06
2023-04-11T10:17:25.967Z,95940.00
2023-04-11T10:18:30.004Z,95956.38
2023-04-11T10:19:38.238Z,95931.53
2023-04-11T10:20:54.223Z,95931.66
2023-04-11T10:21:57.578Z,95914.66
2023-04-11T10:23:06.557Z,95914.88
2023-04-11T10:24:16.669Z,95912.56
2023-04-11T10:25:26.309Z,95902.50
2023-04-11T10:26:48.244Z,95906.38
2023-04-11T10:28:01.938Z,95912.19
2023-04-11T10:29:43.561Z,95911.16
2023-04-11T10:31:10.582Z,95912.47
2023-04-11T10:32:19.916Z,95925.53
2023-04-11T10:33:28.061Z,95932.78
2023-04-11T10:34:32.578Z,95921.94
2023-04-11T10:35:38.564Z,95913.56
2023-04-11T10:37:06.740Z,95945.91
2023-04-11T10:38:53.346Z,95927.13
2023-04-11T10:40:10.678Z,95923.75
2023-04-11T10:41:35.452Z,95918.38
2023-04-11T10:42:43.262Z,95949.72
2023-04-11T10:43:50.195Z,95948.22
2023-04-11T10:45:42.130Z,95940.91
2023-04-11T10:46:50.623Z,95933.34
2023-04-11T10:48:15.067Z,95923.38
2023-04-11T10:49:41.283Z,95956.19
2023-04-11T10:50:45.790Z,95906.84
2023-04-11T10:51:51.627Z,95914.94
2023-04-11T10:52:55.862Z,95913.53
2023-04-11T10:54:05.863Z,95906.78
2023-04-11T10:55:17.514Z,95917.34
2023-04-11T10:56:53.303Z,95922.03
2023-04-11T10:58:20.685Z,95904.97
2023-04-11T10:59:56.661Z,95931.94
2023-04-11T11:02:47.741Z,95906.31
2023-04-11T11:04:02.411Z,95927.69
2023-04-11T11:05:20.432Z,95912.69
2023-04-11T11:06:27.400Z,95910.78
2023-04-11T11:07:31.195Z,95911.19
2023-04-11T11:08:39.024Z,95905.06
2023-04-11T11:09:42.186Z,95919.16
2023-04-11T11:10:51.132Z,95909.84
2023-04-11T11:12:19.015Z,95916.38
2023-04-11T11:13:26.184Z,95907.59
2023-04-11T11:14:33.588Z,95902.91
2023-04-11T11:15:38.134Z,95916.34
2023-04-11T11:16:50.298Z,95952.59
2023-04-11T11:17:54.293Z,95934.25
2023-04-11T11:19:06.287Z,95924.09
2023-04-11T11:20:20.813Z,95905.13
2023-04-11T11:21:29.700Z,95938.94
2023-04-11T11:22:39.033Z,95930.09
2023-04-11T11:23:58.850Z,95933.75
2023-04-11T11:25:10.299Z,95926.63
2023-04-11T11:26:17.484Z,95938.09
2023-04-11T11:27:23.262Z,95934.03
2023-04-11T11:28:33.479Z,95948.69
2023-04-11T11:29:39.217Z,95929.09
2023-04-11T11:30:55.590Z,95929.34
2023-04-11T11:32:06.411Z,95933.94
2023-04-11T11:33:18.521Z,95917.78
2023-04-11T11:34:32.289Z,95926.19
2023-04-11T11:35:38.746Z,95923.53
2023-04-11T11:36:48.805Z,95916.69
2023-04-11T11:37:57.300Z,95907.06
2023-04-11T11:39:06.064Z,95935.16
2023-04-11T11:40:15.857Z,95934.66
2023-04-11T11:41:21.835Z,95950.69
2023-04-11T11:42:26.651Z,95953.28
2023-04-11T11:43:41.502Z,95934.66
2023-04-11T11:44:47.995Z,95940.91
2023-04-11T11:46:22.814Z,95968.06
2023-04-11T11:47:28.091Z,95941.75
2023-04-11T11:48:37.046Z,95925.94
2023-04-11T11:49:53.080Z,95921.25
2023-04-11T11:50:58.618Z,95927.97
2023-04-11T11:52:07.921Z,95910.16
2023-04-11T11:53:18.184Z,95942.03
2023-04-11T11:54:22.363Z,95927.06
2023-04-11T11:55:39.920Z,95931.13
2023-04-11T11:56:55.280Z,95936.19
2023-04-11T11:58:02.583Z,95925.34
2023-04-11T11:59:12.294Z,95918.09
2023-04-11T12:00:17.441Z,95931.06
2023-04-11T12:01:24.189Z,95924.63
2023-04-11T12:02:31.138Z,95922.47
2023-04-11T12:03:39.306Z,95911.56
2023-04-11T12:04:43.087Z,95926.78
2023-04-11T12:05:52.268Z,95907.56
2023-04-11T12:06:57.099Z,95924.00
2023-04-11T12:08:06.199Z,95913.88
2023-04-11T12:09:26.277Z,95922.59
2023-04-11T12:10:42.259Z,95917.47
2023-04-11T12:11:49.137Z,95919.31
2023-04-11T12:12:54.309Z,95936.34
2023-04-11T12:14:01.591Z,95940.75
2023-04-11T12:15:12.360Z,95948.06
2023-04-11T12:16:18.554Z,95940.31
2023-04-11T12:17:22.359Z,95949.66
2023-04-11T12:18:32.090Z,95943.19
2023-04-11T12:19:46.659Z,95945.94
2023-04-11T12:20:55.648Z,95947.16
2023-04-11T12:21:59.887Z,95948.28
2023-04-11T12:23:07.479Z,95939.56
2023-04-11T12:24:14.072Z,95946.78
2023-04-11T12:25:19.681Z,95944.69
2023-04-11T12:26:26.383Z,95937.94
2023-04-11T12:27:30.603Z,95934.44
2023-04-11T12:28:38.064Z,95937.66
2023-04-11T12:29:42.194Z,95949.50
2023-04-11T12:30:52.143Z,95939.38
2023-04-11T12:31:56.511Z,95940.13
2023-04-11T12:33:03.549Z,95952.47
2023-04-11T12:34:11.996Z,95942.31
2023-04-11T12:35:18.896Z,95941.72
2023-04-11T12:36:25.574Z,95941.59
2023-04-11T12:37:29.735Z,95945.59
2023-04-11T12:38:38.363Z,95959.59
2023-04-11T12:39:42.957Z,95952.38
2023-04-11T12:41:30.272Z,95952.44
2023-04-11T12:42:53.201Z,95950.72
2023-04-11T12:44:03.059Z,95940.44
2023-04-11T12:45:08.703Z,95952.38
2023-04-11T12:46:19.925Z,95955.06
2023-04-11T12:47:23.523Z,95954.50
2023-04-11T12:48:42.180Z,95954.50
2023-04-11T12:49:49.976Z,95947.00
2023-04-11T12:51:08.856Z,95958.88
2023-04-11T12:52:15.520Z,95955.16
2023-04-11T12:53:23.492Z,95947.59
2023-04-11T12:54:28.580Z,95952.97
2023-04-11T12:55:43.947Z,95936.50
2023-04-11T12:56:56.697Z,95935.81
2023-04-11T12:58:04.079Z,95934.78
2023-04-11T12:59:14.746Z,95945.72
2023-04-11T13:00:27.913Z,95936.84
2023-04-11T13:01:37.647Z,95934.34
2023-04-11T13:02:45.585Z,95942.28
2023-04-11T13:03:59.338Z,95942.47
2023-04-11T13:05:10.801Z,95943.63
2023-04-11T13:06:15.304Z,95930.81
2023-04-11T13:07:25.462Z,95941.78
2023-04-11T13:08:35.427Z,95930.59
2023-04-11T13:09:39.267Z,95945.84
2023-04-11T13:10:48.612Z,95930.47
2023-04-11T13:11:53.965Z,95955.22
2023-04-11T13:13:11.901Z,95934.75
2023-04-11T13:14:25.378Z,95933.28
2023-04-11T13:15:32.306Z,95944.25
2023-04-11T13:16:44.004Z,95950.41
2023-04-11T13:17:52.784Z,95935.34
2023-04-11T13:19:06.064Z,95947.50
2023-04-11T13:20:15.129Z,95966.28
2023-04-11T13:21:22.251Z,95953.91
2023-04-11T13:22:29.177Z,95953.19
2023-04-11T13:23:36.425Z,95942.69